createdAt,value
2018-03-20T00:02:01.678Z,-0.70
2018-03-20T00:04:29.184Z,-0.80
2018-03-20T00:06:56.675Z,-0.70
2018-03-20T00:09:24.186Z,-0.80
2018-03-20T00:11:51.667Z,-0.80
2018-03-20T00:14:27.318Z,-0.80
2018-03-20T00:16:54.808Z,-0.80
2018-03-20T00:19:22.325Z,-0.80
2018-03-20T00:21:49.810Z,-0.80
2018-03-20T00:24:18.084Z,-0.90
2018-03-20T00:26:45.576Z,-0.90
2018-03-20T00:29:13.850Z,-0.80
2018-03-20T00:31:41.348Z,-0.80
2018-03-20T00:34:08.860Z,-0.80
2018-03-20T00:36:36.349Z,-0.90
2018-03-20T00:39:03.859Z,-0.90
2018-03-20T00:41:31.355Z,-0.90
2018-03-20T00:43:58.864Z,-0.90
2018-03-20T00:46:26.356Z,-0.90
2018-03-20T00:48:54.636Z,-0.90
2018-03-20T00:51:22.891Z,-0.90
2018-03-20T00:53:50.396Z,-1.00
2018-03-20T00:56:18.663Z,-1.00
2018-03-20T00:58:46.163Z,-1.00
2018-03-20T01:01:14.592Z,-1.00
2018-03-20T01:03:42.101Z,-1.00
2018-03-20T01:06:09.592Z,-1.00
2018-03-20T01:08:37.867Z,-1.00
2018-03-20T01:11:05.379Z,-1.00
2018-03-20T01:13:32.895Z,-1.00
2018-03-20T01:16:00.380Z,-0.90
2018-03-20T01:18:28.656Z,-1.00
2018-03-20T01:20:56.146Z,-1.00
2018-03-20T01:23:24.430Z,-0.90
2018-03-20T01:25:52.684Z,-1.00
2018-03-20T01:28:23.630Z,-1.00
2018-03-20T01:30:51.141Z,-0.90
2018-03-20T01:33:19.387Z,-0.90
2018-03-20T01:35:46.899Z,-1.00
2018-03-20T01:38:15.151Z,-0.90
2018-03-20T01:40:42.643Z,-1.00
2018-03-20T01:43:10.131Z,-1.00
2018-03-20T01:45:37.639Z,-1.10
2018-03-20T01:48:05.127Z,-1.10
2018-03-20T01:50:32.628Z,-1.20
2018-03-20T01:56:02.428Z,-1.20
2018-03-20T01:58:30.679Z,-1.20
2018-03-20T02:00:58.176Z,-1.30
2018-03-20T02:03:25.662Z,-1.30
2018-03-20T02:05:53.173Z,-1.30
2018-03-20T02:08:20.673Z,-1.20
2018-03-20T02:10:48.960Z,-1.20
2018-03-20T02:13:17.215Z,-1.30
2018-03-20T02:15:44.722Z,-1.40
2018-03-20T02:18:12.980Z,-1.30
2018-03-20T02:20:40.493Z,-1.40
2018-03-20T02:23:07.985Z,-1.30
2018-03-20T02:25:35.495Z,-1.20
2018-03-20T02:28:02.985Z,-1.20
2018-03-20T02:30:31.270Z,-1.30
2018-03-20T02:32:59.534Z,-1.40
2018-03-20T02:35:27.051Z,-1.40
2018-03-20T02:37:54.549Z,-1.40
2018-03-20T02:40:22.069Z,-1.40
2018-03-20T02:42:50.325Z,-1.40
2018-03-20T02:45:17.835Z,-1.40
2018-03-20T02:47:48.020Z,-1.50
2018-03-20T02:50:15.528Z,-1.60
2018-03-20T02:52:43.015Z,-1.60
2018-03-20T02:55:11.293Z,-1.60
2018-03-20T02:57:38.791Z,-1.70
2018-03-20T03:00:06.290Z,-1.60
2018-03-20T03:02:33.805Z,-1.70
2018-03-20T03:05:02.064Z,-1.70
2018-03-20T03:07:29.580Z,-1.80
2018-03-20T03:09:57.082Z,-1.70
2018-03-20T03:12:24.597Z,-1.70
2018-03-20T03:14:52.094Z,-1.60
2018-03-20T03:17:19.609Z,-1.60
2018-03-20T03:19:47.093Z,-1.60
2018-03-20T03:22:14.600Z,-1.60
2018-03-20T03:24:42.097Z,-1.60
2018-03-20T03:27:09.600Z,-1.60
2018-03-20T03:29:37.089Z,-1.60
2018-03-20T03:32:04.600Z,-1.60
2018-03-20T03:34:32.148Z,-1.60
2018-03-20T03:36:59.613Z,-1.60
2018-03-20T03:39:27.873Z,-1.60
2018-03-20T03:41:55.381Z,-1.60
2018-03-20T03:44:22.873Z,-1.60
2018-03-20T03:46:50.383Z,-1.60
2018-03-20T03:49:17.872Z,-1.60
2018-03-20T03:51:46.153Z,-1.70
2018-03-20T03:54:14.610Z,-1.70
2018-03-20T03:56:42.116Z,-1.70
2018-03-20T03:59:09.601Z,-1.70
2018-03-20T04:01:37.115Z,-1.70
2018-03-20T04:04:04.609Z,-1.60
2018-03-20T04:06:32.109Z,-1.60
2018-03-20T04:09:00.389Z,-1.40
2018-03-20T04:11:27.886Z,-1.50
2018-03-20T04:13:55.398Z,-1.20
2018-03-20T04:16:22.888Z,-1.20
2018-03-20T04:18:50.406Z,-1.20
2018-03-20T04:21:17.904Z,-1.20
2018-03-20T04:23:45.422Z,-1.10
2018-03-20T04:26:13.681Z,-1.40
2018-03-20T04:28:41.193Z,-1.50
2018-03-20T04:31:08.685Z,-1.40
2018-03-20T04:33:36.190Z,-1.40
2018-03-20T04:36:03.688Z,-1.30
2018-03-20T04:38:31.970Z,-1.50
2018-03-20T04:41:00.229Z,-1.50
2018-03-20T04:43:27.744Z,-1.50
2018-03-20T04:45:56.001Z,-1.50
2018-03-20T04:48:23.513Z,-1.60
2018-03-20T04:50:50.996Z,-1.70
2018-03-20T04:53:19.435Z,-1.90
2018-03-20T04:55:46.929Z,-1.80
2018-03-20T04:58:15.181Z,-1.70
2018-03-20T05:00:42.688Z,-1.70
2018-03-20T05:03:10.945Z,-1.50
2018-03-20T05:05:38.453Z,-1.50
2018-03-20T05:08:06.701Z,-1.40
2018-03-20T05:10:34.205Z,-1.40
2018-03-20T05:13:02.461Z,-1.30
2018-03-20T05:15:29.972Z,-1.40
2018-03-20T05:17:58.229Z,-1.30
2018-03-20T05:20:31.483Z,-1.30
2018-03-20T05:23:11.818Z,-1.40
2018-03-20T05:25:39.338Z,-1.60
2018-03-20T05:28:06.829Z,-1.70
2018-03-20T05:30:34.344Z,-2.00
2018-03-20T05:33:02.612Z,-2.20
2018-03-20T05:35:30.133Z,-2.30
2018-03-20T05:37:58.391Z,-2.40
2018-03-20T05:40:26.676Z,-2.40
2018-03-20T05:42:54.173Z,-2.50
2018-03-20T05:45:21.661Z,-2.50
2018-03-20T05:47:51.782Z,-2.60
2018-03-20T05:50:25.156Z,-2.70
2018-03-20T05:52:52.744Z,-2.90
2018-03-20T05:55:20.249Z,-3.00
2018-03-20T05:57:48.644Z,-3.10
2018-03-20T06:00:16.134Z,-3.20
2018-03-20T06:02:43.640Z,-3.20
2018-03-20T06:05:11.141Z,-3.20
2018-03-20T06:07:38.653Z,-3.00
2018-03-20T06:10:06.144Z,-2.80
2018-03-20T06:12:34.419Z,-2.70
2018-03-20T06:15:01.912Z,-2.70
2018-03-20T06:17:29.429Z,-2.80
2018-03-20T06:19:56.916Z,-2.70
2018-03-20T06:22:24.435Z,-2.60
2018-03-20T06:24:51.926Z,-2.60
2018-03-20T06:27:19.442Z,-2.50
2018-03-20T06:29:47.697Z,-2.90
2018-03-20T06:32:15.213Z,-3.00
2018-03-20T06:34:43.464Z,-3.00
2018-03-20T06:37:10.987Z,-3.10
2018-03-20T06:39:38.472Z,-2.90
2018-03-20T06:42:05.997Z,-2.70
2018-03-20T06:44:33.485Z,-2.90
2018-03-20T06:47:01.765Z,-2.90
2018-03-20T06:49:30.029Z,-2.60
2018-03-20T06:51:57.536Z,-2.70
2018-03-20T06:54:25.788Z,-2.30
2018-03-20T06:56:53.298Z,-2.30
2018-03-20T06:59:20.795Z,-2.10
2018-03-20T07:01:48.284Z,-2.00
2018-03-20T07:04:15.797Z,-2.30
2018-03-20T07:06:44.960Z,-2.20
2018-03-20T07:09:12.473Z,-2.30
2018-03-20T07:11:40.735Z,-2.20
2018-03-20T07:14:08.248Z,-2.20
2018-03-20T07:16:35.740Z,-2.10
2018-03-20T07:19:03.257Z,-2.00
2018-03-20T07:21:30.752Z,-1.80
2018-03-20T07:23:58.281Z,-1.80
2018-03-20T07:26:25.772Z,-1.60
2018-03-20T07:28:53.285Z,-1.50
2018-03-20T07:31:20.793Z,-1.40
2018-03-20T07:33:48.302Z,-1.40
2018-03-20T07:36:16.568Z,-1.30
2018-03-20T07:38:44.085Z,-1.40
2018-03-20T07:41:11.589Z,-1.20
2018-03-20T07:43:39.096Z,-1.00
2018-03-20T07:46:06.635Z,-0.90
2018-03-20T07:48:34.946Z,-0.70
2018-03-20T07:51:02.436Z,-0.80
2018-03-20T07:53:30.725Z,-0.60
2018-03-20T07:55:58.217Z,-0.70
2018-03-20T07:58:25.713Z,-0.60
2018-03-20T08:00:53.215Z,-0.70
2018-03-20T08:03:20.726Z,-0.80
2018-03-20T08:05:48.264Z,-0.60
2018-03-20T08:08:15.749Z,-0.60
2018-03-20T08:10:43.260Z,-0.60
2018-03-20T08:13:10.798Z,-0.50
2018-03-20T08:15:39.069Z,-0.50
2018-03-20T08:18:07.321Z,-0.40
2018-03-20T08:20:34.870Z,-0.40
2018-03-20T08:23:02.357Z,-0.40
2018-03-20T08:25:29.864Z,-0.40
2018-03-20T08:27:58.120Z,-0.30
2018-03-20T08:30:25.790Z,-0.40
2018-03-20T08:32:53.281Z,-0.40
2018-03-20T08:35:20.801Z,-0.40
2018-03-20T08:37:49.062Z,-0.30
2018-03-20T08:40:17.360Z,-0.30
2018-03-20T08:42:44.868Z,-0.40
2018-03-20T08:45:12.385Z,-0.30
2018-03-20T08:47:40.672Z,-0.20
2018-03-20T08:50:08.949Z,-0.20
2018-03-20T08:52:36.659Z,-0.30
2018-03-20T08:55:04.161Z,-0.20
2018-03-20T08:57:31.677Z,-0.30
2018-03-20T09:00:01.869Z,-0.30
2018-03-20T09:02:34.003Z,-0.30
2018-03-20T09:05:01.492Z,-0.20
2018-03-20T09:07:29.020Z,-0.10
2018-03-20T09:09:56.509Z,-0.10
2018-03-20T09:12:24.839Z,-0.10
2018-03-20T09:14:52.322Z,-0.10
2018-03-20T09:17:19.841Z,0.00
2018-03-20T09:19:48.093Z,0.00
2018-03-20T09:22:15.604Z,0.00
2018-03-20T09:24:43.088Z,0.00
2018-03-20T09:27:10.657Z,-0.10
2018-03-20T09:29:38.104Z,-0.20
2018-03-20T09:32:06.390Z,-0.10
2018-03-20T09:34:34.658Z,-0.30
2018-03-20T09:37:02.173Z,-0.30
2018-03-20T09:39:29.660Z,-0.30
2018-03-20T09:41:57.182Z,-0.10
2018-03-20T09:44:24.682Z,-0.10
2018-03-20T09:46:52.186Z,-0.20
2018-03-20T09:49:19.715Z,-0.20
2018-03-20T09:51:47.208Z,-0.20
2018-03-20T09:54:14.738Z,-0.10
2018-03-20T09:56:42.999Z,0.00
2018-03-20T09:59:10.504Z,0.00
2018-03-20T10:01:38.809Z,0.20
2018-03-20T10:04:06.347Z,0.20
2018-03-20T10:06:33.856Z,0.30
2018-03-20T10:09:02.273Z,0.40
2018-03-20T10:11:29.764Z,0.50
2018-03-20T10:13:57.274Z,0.60
2018-03-20T10:16:25.529Z,1.10
2018-03-20T10:18:53.044Z,1.00
2018-03-20T10:21:20.549Z,1.10
2018-03-20T10:23:48.061Z,1.10
2018-03-20T10:26:16.331Z,1.00
2018-03-20T10:28:44.621Z,1.00
2018-03-20T10:31:12.116Z,1.00
2018-03-20T10:33:40.406Z,0.90
2018-03-20T10:36:08.658Z,0.80
2018-03-20T10:38:36.178Z,0.80
2018-03-20T10:41:03.670Z,0.80
2018-03-20T10:43:31.193Z,0.80
2018-03-20T10:45:59.461Z,0.80
2018-03-20T10:48:26.974Z,0.70
2018-03-20T10:50:54.481Z,0.80
2018-03-20T10:53:23.912Z,0.90
2018-03-20T10:55:51.465Z,1.00
2018-03-20T10:58:18.966Z,1.10
2018-03-20T11:00:48.280Z,1.00
2018-03-20T11:03:15.785Z,1.00
2018-03-20T11:05:43.317Z,1.10
2018-03-20T11:08:10.822Z,1.10
2018-03-20T11:10:38.345Z,1.10
2018-03-20T11:13:05.833Z,1.10
2018-03-20T11:15:33.346Z,1.20
2018-03-20T11:18:01.604Z,1.40
2018-03-20T11:20:29.880Z,1.50
2018-03-20T11:22:57.382Z,1.50
2018-03-20T11:25:24.905Z,1.70
2018-03-20T11:27:52.408Z,1.80
2018-03-20T11:30:20.693Z,1.90
2018-03-20T11:32:53.765Z,1.90
2018-03-20T11:35:21.276Z,1.80
2018-03-20T11:37:48.787Z,1.80
2018-03-20T11:40:16.309Z,1.90
2018-03-20T11:42:44.560Z,1.90
2018-03-20T11:45:12.094Z,1.90
2018-03-20T11:47:39.588Z,2.10
2018-03-20T11:50:07.071Z,2.30
2018-03-20T11:52:34.580Z,2.40
2018-03-20T11:55:02.828Z,2.60
2018-03-20T11:57:30.342Z,2.60
2018-03-20T11:59:58.596Z,2.40
2018-03-20T12:02:26.117Z,2.30
2018-03-20T12:04:53.599Z,2.60
2018-03-20T12:07:21.109Z,2.60
2018-03-20T12:09:48.601Z,2.80
2018-03-20T12:12:16.881Z,2.90
2018-03-20T12:14:44.380Z,2.90
2018-03-20T12:17:11.900Z,3.10
2018-03-20T12:19:39.407Z,3.10
2018-03-20T12:22:07.666Z,3.00
2018-03-20T12:24:35.181Z,3.00
2018-03-20T12:27:02.681Z,3.00
2018-03-20T12:29:30.209Z,3.00
2018-03-20T12:31:58.476Z,3.10
2018-03-20T12:34:25.989Z,3.00
2018-03-20T12:36:53.486Z,3.10
2018-03-20T12:39:21.013Z,3.20
2018-03-20T12:41:48.528Z,3.10
2018-03-20T12:44:17.960Z,3.20
2018-03-20T12:46:45.591Z,3.20
2018-03-20T12:49:13.017Z,3.20
2018-03-20T12:51:40.538Z,3.10
2018-03-20T12:54:08.033Z,3.10
2018-03-20T12:56:35.550Z,3.10
2018-03-20T12:59:03.813Z,3.00
2018-03-20T13:01:31.458Z,2.90
2018-03-20T13:03:58.957Z,3.00
2018-03-20T13:06:26.460Z,2.90
2018-03-20T13:08:54.717Z,2.80
2018-03-20T13:11:22.227Z,2.80
2018-03-20T13:13:49.712Z,2.80
2018-03-20T13:16:17.224Z,2.90
2018-03-20T13:18:44.716Z,2.90
2018-03-20T13:21:14.328Z,2.90
2018-03-20T13:23:41.874Z,2.90
2018-03-20T13:26:10.667Z,2.80
2018-03-20T13:28:38.172Z,2.80
2018-03-20T13:31:05.672Z,2.70
2018-03-20T13:33:33.192Z,2.60
2018-03-20T13:36:00.687Z,2.60
2018-03-20T13:38:28.977Z,2.60
2018-03-20T13:40:57.232Z,2.60
2018-03-20T13:43:24.746Z,2.50
2018-03-20T13:45:53.017Z,2.50
2018-03-20T13:48:33.242Z,2.50
2018-03-20T13:51:00.744Z,2.50
2018-03-20T13:53:28.252Z,2.50
2018-03-20T13:55:55.747Z,2.40
2018-03-20T13:58:23.252Z,2.50
2018-03-20T14:00:50.749Z,2.60
2018-03-20T14:03:18.284Z,2.60
2018-03-20T14:05:45.777Z,2.60
2018-03-20T14:08:13.296Z,2.60
2018-03-20T14:10:40.793Z,2.60
2018-03-20T14:13:08.311Z,2.60
2018-03-20T14:15:35.861Z,2.60
2018-03-20T14:18:04.137Z,2.60
2018-03-20T14:20:31.644Z,2.50
2018-03-20T14:22:59.136Z,2.60
2018-03-20T14:25:26.677Z,2.60
2018-03-20T14:27:54.939Z,2.60
2018-03-20T14:30:22.457Z,2.50
2018-03-20T14:32:49.944Z,2.60
2018-03-20T14:35:17.453Z,2.60
2018-03-20T14:37:44.950Z,2.70
2018-03-20T14:40:13.243Z,2.80
2018-03-20T14:42:41.498Z,2.80
2018-03-20T14:45:09.016Z,2.70
2018-03-20T14:47:36.881Z,2.80
2018-03-20T14:50:04.411Z,2.90
2018-03-20T14:52:31.905Z,2.90
2018-03-20T14:55:00.198Z,2.90
2018-03-20T14:57:27.680Z,2.90
2018-03-20T14:59:55.172Z,2.90
2018-03-20T15:02:22.681Z,2.90
2018-03-20T15:04:50.175Z,2.90
2018-03-20T15:07:18.506Z,3.00
2018-03-20T15:09:45.963Z,2.90
2018-03-20T15:12:13.472Z,2.90
2018-03-20T15:14:40.967Z,2.90
2018-03-20T15:17:09.252Z,2.90
2018-03-20T15:19:36.732Z,2.80
2018-03-20T15:22:05.023Z,2.90
2018-03-20T15:24:33.277Z,2.90
2018-03-20T15:27:00.793Z,2.90
2018-03-20T15:29:29.052Z,2.80
2018-03-20T15:31:56.566Z,2.80
2018-03-20T15:34:24.062Z,2.90
2018-03-20T15:36:51.560Z,2.90
2018-03-20T15:39:19.070Z,2.90
2018-03-20T15:41:52.797Z,2.90
2018-03-20T15:44:21.076Z,2.90
2018-03-20T15:46:48.568Z,2.80
2018-03-20T15:49:16.085Z,2.90
2018-03-20T15:51:43.580Z,2.90
2018-03-20T15:54:11.859Z,2.90
2018-03-20T15:56:40.112Z,2.90
2018-03-20T15:59:07.625Z,2.80
2018-03-20T16:01:35.131Z,2.90
2018-03-20T16:04:02.658Z,2.80
2018-03-20T16:06:30.921Z,2.90
2018-03-20T16:08:58.422Z,2.80
2018-03-20T16:11:26.717Z,2.80
2018-03-20T16:13:54.216Z,2.80
2018-03-20T16:16:21.740Z,2.80
2018-03-20T16:18:49.998Z,2.80
2018-03-20T16:21:17.508Z,2.70
2018-03-20T16:23:45.769Z,2.90
2018-03-20T16:26:13.282Z,2.80
2018-03-20T16:28:40.777Z,2.80
2018-03-20T16:31:08.294Z,2.80
2018-03-20T16:33:36.558Z,2.90
2018-03-20T16:36:04.075Z,2.80
2018-03-20T16:41:34.592Z,2.80
2018-03-20T16:44:02.089Z,2.70
2018-03-20T16:46:29.596Z,2.70
2018-03-20T16:48:57.100Z,2.80
2018-03-20T16:51:24.625Z,2.80
2018-03-20T16:54:09.795Z,2.80
2018-03-20T16:56:37.330Z,2.80
2018-03-20T16:59:04.828Z,2.80
2018-03-20T17:01:32.341Z,2.70
2018-03-20T17:03:59.839Z,2.80
2018-03-20T17:06:28.172Z,2.70
2018-03-20T17:11:49.031Z,2.70
2018-03-20T17:14:17.283Z,2.70
2018-03-20T17:16:44.808Z,2.60
2018-03-20T17:19:12.299Z,2.70
2018-03-20T17:21:40.602Z,2.70
2018-03-20T17:24:08.153Z,2.60
2018-03-20T17:26:35.652Z,2.60
2018-03-20T17:29:03.142Z,2.60
2018-03-20T17:31:30.654Z,2.60
2018-03-20T17:33:58.169Z,2.70
2018-03-20T17:36:25.669Z,2.70
2018-03-20T17:38:53.219Z,2.70
2018-03-20T17:41:20.688Z,2.70
2018-03-20T17:43:48.192Z,2.70
2018-03-20T17:46:15.733Z,2.70
2018-03-20T17:48:43.212Z,2.70
2018-03-20T17:51:11.473Z,2.70
2018-03-20T17:53:38.992Z,2.70
2018-03-20T17:56:06.487Z,2.70
2018-03-20T17:58:34.012Z,2.70
2018-03-20T18:01:02.298Z,2.70
2018-03-20T18:03:29.797Z,2.60
2018-03-20T18:05:57.289Z,2.60
2018-03-20T18:08:24.792Z,2.60
2018-03-20T18:10:52.281Z,2.60
2018-03-20T18:13:19.801Z,2.60
2018-03-20T18:15:47.302Z,2.60
2018-03-20T18:18:14.808Z,2.60
2018-03-20T18:20:43.066Z,2.60
2018-03-20T18:26:04.821Z,2.60
2018-03-20T18:28:32.348Z,2.60
2018-03-20T18:30:59.864Z,2.50
2018-03-20T18:33:27.370Z,2.50
2018-03-20T18:35:55.656Z,2.50
2018-03-20T18:38:23.932Z,2.60
2018-03-20T18:40:52.228Z,2.60
2018-03-20T18:43:19.721Z,2.60
2018-03-20T18:45:47.237Z,2.60
2018-03-20T18:48:14.741Z,2.50
2018-03-20T18:50:43.020Z,2.30
2018-03-20T18:53:10.524Z,2.30
2018-03-20T18:55:38.049Z,2.30
2018-03-20T18:58:05.553Z,2.20
2018-03-20T19:00:33.858Z,2.20
2018-03-20T19:03:01.359Z,2.10
2018-03-20T19:05:28.868Z,2.30
2018-03-20T19:07:56.412Z,2.30
2018-03-20T19:10:23.878Z,2.30
2018-03-20T19:12:51.399Z,2.30
2018-03-20T19:15:18.906Z,2.20
2018-03-20T19:17:46.426Z,2.20
2018-03-20T19:20:14.789Z,2.10
2018-03-20T19:22:42.995Z,2.00
2018-03-20T19:25:11.296Z,2.10
2018-03-20T19:27:39.584Z,2.00
2018-03-20T19:30:07.842Z,2.00
2018-03-20T19:32:35.362Z,2.00
2018-03-20T19:35:09.802Z,2.00
2018-03-20T19:37:37.319Z,1.90
2018-03-20T19:40:04.819Z,1.80
2018-03-20T19:42:33.110Z,1.80
2018-03-20T19:45:01.387Z,1.70
2018-03-20T19:47:29.676Z,1.70
2018-03-20T19:49:57.185Z,1.70
2018-03-20T19:52:24.704Z,1.70
2018-03-20T19:54:52.192Z,1.70
2018-03-20T19:57:31.177Z,1.70
2018-03-20T19:59:58.681Z,1.60
2018-03-20T20:02:26.177Z,1.60
2018-03-20T20:04:54.455Z,1.60
2018-03-20T20:07:21.945Z,1.50
2018-03-20T20:09:50.221Z,1.50
2018-03-20T20:12:18.490Z,1.50
2018-03-20T20:14:52.997Z,1.40
2018-03-20T20:17:20.498Z,1.30
2018-03-20T20:19:48.020Z,1.20
2018-03-20T20:22:15.519Z,1.20
2018-03-20T20:24:43.037Z,1.10
2018-03-20T20:27:11.310Z,1.00
2018-03-20T20:29:38.841Z,1.00
2018-03-20T20:32:06.333Z,1.00
2018-03-20T20:34:33.864Z,1.00
2018-03-20T20:37:01.357Z,0.90
2018-03-20T20:39:28.880Z,0.90
2018-03-20T20:41:57.181Z,0.80
2018-03-20T20:44:24.699Z,0.70
2018-03-20T20:46:52.206Z,1.00
2018-03-20T20:49:20.458Z,1.20
2018-03-20T20:51:47.970Z,1.10
2018-03-20T20:54:15.478Z,1.20
2018-03-20T20:56:43.009Z,1.20
2018-03-20T20:59:11.269Z,1.30
2018-03-20T21:01:38.795Z,1.30
2018-03-20T21:04:06.294Z,1.30
2018-03-20T21:06:33.813Z,1.20
2018-03-20T21:09:01.299Z,1.20
2018-03-20T21:11:28.799Z,1.20
2018-03-20T21:13:56.316Z,1.10
2018-03-20T21:16:24.577Z,1.10
2018-03-20T21:18:52.173Z,1.00
2018-03-20T21:21:20.433Z,1.00
2018-03-20T21:23:47.952Z,1.00
2018-03-20T21:26:15.449Z,1.10
2018-03-20T21:28:42.982Z,1.20
2018-03-20T21:31:10.485Z,1.10
2018-03-20T21:33:38.006Z,0.90
2018-03-20T21:36:08.197Z,0.90
2018-03-20T21:38:35.711Z,0.90
2018-03-20T21:41:03.985Z,0.80
2018-03-20T21:43:31.524Z,0.70
2018-03-20T21:45:59.012Z,0.70
2018-03-20T21:48:26.540Z,1.00
2018-03-20T21:50:54.035Z,1.10
2018-03-20T21:53:21.528Z,1.10
2018-03-20T21:55:49.040Z,1.00
2018-03-20T21:58:16.536Z,1.00
2018-03-20T22:00:44.045Z,1.00
2018-03-20T22:03:11.540Z,0.90
2018-03-20T22:05:39.821Z,1.00
2018-03-20T22:08:08.085Z,1.00
2018-03-20T22:10:35.600Z,0.90
2018-03-20T22:13:03.111Z,1.00
2018-03-20T22:15:30.620Z,1.00
2018-03-20T22:17:58.108Z,1.00
2018-03-20T22:20:26.377Z,0.90
2018-03-20T22:22:53.870Z,0.80
2018-03-20T22:25:21.397Z,0.90
2018-03-20T22:27:48.891Z,0.90
2018-03-20T22:30:17.180Z,0.90
2018-03-20T22:32:45.432Z,0.90
2018-03-20T22:35:12.915Z,0.90
2018-03-20T22:37:40.424Z,0.90
2018-03-20T22:40:08.676Z,0.90
2018-03-20T22:42:36.188Z,0.90
2018-03-20T22:45:03.696Z,1.00
2018-03-20T22:47:31.215Z,1.00
2018-03-20T22:49:59.484Z,1.00
2018-03-20T22:52:26.995Z,1.00
2018-03-20T22:54:54.492Z,1.10
2018-03-20T22:57:22.002Z,1.00
2018-03-20T22:59:49.493Z,0.80
2018-03-20T23:02:17.019Z,0.70
2018-03-20T23:04:44.512Z,0.60
2018-03-20T23:07:12.025Z,0.60
2018-03-20T23:09:39.519Z,0.80
2018-03-20T23:12:07.025Z,0.80
2018-03-20T23:14:35.312Z,0.60
2018-03-20T23:17:02.806Z,0.60
2018-03-20T23:19:30.330Z,0.70
2018-03-20T23:21:57.827Z,0.60
2018-03-20T23:24:25.340Z,0.50
2018-03-20T23:26:52.842Z,0.40
2018-03-20T23:29:20.362Z,0.50
2018-03-20T23:31:47.869Z,0.50
2018-03-20T23:34:15.386Z,0.60
2018-03-20T23:36:42.885Z,0.50
2018-03-20T23:39:10.394Z,0.50
2018-03-20T23:41:37.891Z,0.60
2018-03-20T23:44:06.187Z,0.50
2018-03-20T23:46:34.445Z,0.50
2018-03-20T23:49:01.941Z,0.50
2018-03-20T23:51:30.216Z,0.30
2018-03-20T23:53:57.717Z,0.30
2018-03-20T23:56:25.988Z,0.30
2018-03-20T23:58:54.250Z,0.30
